createdAt,value
2022-12-04T00:10:02.266Z,17.593
2022-12-04T00:25:04.162Z,17.263
2022-12-04T00:40:06.047Z,17.721
2022-12-04T00:55:07.966Z,17.072
2022-12-04T01:10:09.881Z,16.691
2022-12-04T01:25:12.040Z,17.483
2022-12-04T01:40:13.963Z,17.421
2022-12-04T01:55:15.904Z,17.247
2022-12-04T02:10:17.843Z,17.554
2022-12-04T02:25:19.829Z,16.526
2022-12-04T02:40:21.719Z,17.02
2022-12-04T02:55:23.607Z,17.467
2022-12-04T03:10:25.540Z,16.833
2022-12-04T03:25:27.480Z,16.974
2022-12-04T03:40:29.350Z,17.46
2022-12-04T03:55:31.207Z,17.655
2022-12-04T04:10:33.347Z,18.041
2022-12-04T04:25:35.262Z,17.751
2022-12-04T04:40:37.183Z,17.745
2022-12-04T04:55:39.122Z,17.583
2022-12-04T05:10:41.129Z,17.742
2022-12-04T05:25:43.087Z,17.796
2022-12-04T05:40:45.024Z,16.954
2022-12-04T05:55:46.935Z,17.12
2022-12-04T06:10:48.881Z,16.624
2022-12-04T06:25:50.936Z,18.05
2022-12-04T06:40:52.869Z,17.814
2022-12-04T06:55:54.785Z,17.898
2022-12-04T07:10:59.276Z,17.63
2022-12-04T07:26:01.505Z,17.867
2022-12-04T07:41:03.524Z,16.377
2022-12-04T07:56:05.529Z,17.051
2022-12-04T08:11:07.494Z,17.467
2022-12-04T08:26:09.417Z,16.607
2022-12-04T08:41:11.389Z,16.753
2022-12-04T08:56:13.360Z,17.017
2022-12-04T09:11:15.361Z,16.564
2022-12-04T09:26:17.309Z,17.395
2022-12-04T09:41:19.310Z,16.962
2022-12-04T09:56:21.234Z,17.603
2022-12-04T10:11:26.523Z,17.663
2022-12-04T10:26:31.245Z,17.685
2022-12-04T10:41:33.169Z,18.487
2022-12-04T10:56:35.117Z,18.118
2022-12-04T11:11:37.053Z,18.661
2022-12-04T11:26:38.974Z,18.361
2022-12-04T11:41:40.913Z,18.815
2022-12-04T11:56:42.906Z,18.631
2022-12-04T12:11:44.860Z,18.954
2022-12-04T12:26:46.847Z,18.766
2022-12-04T12:41:48.751Z,18.756
2022-12-04T12:56:50.672Z,19.193
2022-12-04T13:11:52.627Z,18.871
2022-12-04T13:26:54.668Z,19.23
2022-12-04T13:41:56.514Z,18.739
2022-12-04T13:56:58.357Z,19.191
2022-12-04T14:12:00.149Z,18.755
2022-12-04T14:27:11.721Z,19.23
2022-12-04T14:42:13.871Z,18.86
2022-12-04T14:57:15.703Z,19.365
2022-12-04T15:12:17.597Z,18.778
2022-12-04T15:27:19.471Z,19.083
2022-12-04T15:42:21.399Z,19.152
2022-12-04T15:57:23.259Z,18.851
2022-12-04T16:40:22.743Z,21.822
2022-12-04T16:55:24.572Z,19.675
2022-12-04T17:10:26.384Z,20.409
2022-12-04T17:25:28.225Z,18.731
2022-12-04T17:40:30.063Z,20.097
2022-12-04T17:55:31.870Z,19.032
2022-12-04T18:10:33.694Z,19.746
2022-12-04T18:25:35.531Z,20.385
2022-12-04T18:40:37.380Z,19.857
2022-12-04T18:55:39.185Z,19.009
2022-12-04T19:10:41.044Z,18.945
2022-12-04T19:25:42.911Z,18.087
2022-12-04T19:40:44.717Z,17.496
2022-12-04T19:55:46.559Z,17.69
2022-12-04T20:10:48.766Z,17.475
2022-12-04T20:25:50.612Z,17.192
2022-12-04T20:40:52.468Z,17.609
2022-12-04T20:55:54.285Z,17.287
2022-12-04T21:10:56.110Z,17.201
2022-12-04T21:25:57.937Z,16.733
2022-12-04T21:40:59.793Z,16.969
2022-12-04T21:56:01.620Z,16.759
2022-12-04T22:11:03.476Z,16.586
2022-12-04T22:26:05.310Z,17.036
2022-12-04T22:41:07.078Z,17.596
2022-12-04T22:56:08.938Z,16.997
2022-12-04T23:11:10.800Z,17.498
2022-12-04T23:26:12.616Z,17.167
2022-12-04T23:41:14.448Z,18.887
2022-12-04T23:56:16.225Z,17.85
